Time;durP1;ratioP1;P1;durP2;ratioP2;P2;SDS_P1;SDS_P2;PMS_P1;PMS_P2;Temp;Humidity;BMP_temperature;BMP_pressure;BME280_temperature;BME280_humidity;BME280_pressure;Samples;Min_cycle;Max_cycle;Signal;HPM_P1;HPM_P2
2023/06/06 03:55:41;;;;;;;5.95;4.75;;;;;;;15.97;100.00;100471.63;6157433;28;20222;-82
2023/06/06 03:58:46;;;;;;;4.70;4.20;;;;;;;15.97;100.00;100470.75;5257144;33;31668;-81
2023/06/06 04:01:53;;;;;;;8.55;4.93;;;;;;;15.88;100.00;100464.69;5257140;33;34274;-81
2023/06/06 04:05:01;;;;;;;10.70;5.12;;;;;;;15.89;100.00;100474.53;5246714;33;33375;-81
2023/06/06 04:08:04;;;;;;;7.57;4.95;;;;;;;15.89;100.00;100479.97;5257346;33;33504;-81
2023/06/06 04:11:07;;;;;;;8.60;5.12;;;;;;;15.95;100.00;100470.97;5245746;33;33777;-81
2023/06/06 04:14:12;;;;;;;9.82;5.82;;;;;;;15.93;100.00;100474.94;5245266;33;33607;-81
2023/06/06 04:17:15;;;;;;;9.80;5.72;;;;;;;16.02;100.00;100479.09;5269549;33;34726;-81
2023/06/06 04:20:17;;;;;;;6.57;4.72;;;;;;;15.94;100.00;100476.59;5268582;33;33745;-81
2023/06/06 04:23:20;;;;;;;12.95;5.32;;;;;;;15.96;100.00;100464.50;5269528;33;33803;-81
2023/06/06 04:26:31;;;;;;;8.20;5.25;;;;;;;16.01;100.00;100461.16;5256664;33;33514;-81
2023/06/06 04:29:34;;;;;;;6.15;4.82;;;;;;;16.02;100.00;100458.22;5245946;33;34383;-81
2023/06/06 04:32:39;;;;;;;9.13;5.10;;;;;;;16.07;100.00;100458.41;5258945;33;34964;-81
2023/06/06 04:35:42;;;;;;;8.82;5.72;;;;;;;16.11;100.00;100458.81;5248380;33;33771;-81
2023/06/06 04:38:49;;;;;;;9.85;5.75;;;;;;;16.09;100.00;100456.34;5271364;33;34253;-81
2023/06/06 04:41:56;;;;;;;7.22;5.37;;;;;;;16.12;100.00;100446.94;5259769;33;34597;-81
2023/06/06 04:45:02;;;;;;;9.90;5.80;;;;;;;16.16;100.00;100441.91;5271107;33;34194;-81
2023/06/06 04:48:05;;;;;;;6.93;5.93;;;;;;;16.23;100.00;100438.13;5254652;33;36067;-81
2023/06/06 04:51:08;;;;;;;8.38;5.80;;;;;;;16.19;100.00;100438.75;5271987;33;34272;-81
2023/06/06 04:54:12;;;;;;;10.32;6.28;;;;;;;16.26;100.00;100435.00;5271932;33;33825;-81
2023/06/06 04:57:16;;;;;;;8.40;6.07;;;;;;;16.30;100.00;100433.50;5286768;33;34197;-81
2023/06/06 05:00:20;;;;;;;8.60;5.95;;;;;;;16.36;100.00;100434.53;5275263;33;33776;-81
2023/06/06 05:03:22;;;;;;;9.38;6.32;;;;;;;16.39;100.00;100433.28;5276682;33;33922;-81
2023/06/06 05:06:27;;;;;;;7.90;6.03;;;;;;;16.39;100.00;100434.09;5265220;33;34470;-81
2023/06/06 05:09:30;;;;;;;12.00;6.18;;;;;;;16.40;100.00;100438.47;5276399;33;33361;-81
2023/06/06 05:12:32;;;;;;;13.82;6.37;;;;;;;16.41;100.00;100439.31;5266603;33;34479;-87
2023/06/06 05:15:35;;;;;;;7.72;5.82;;;;;;;16.39;100.00;100436.81;5264192;33;33595;-85
2023/06/06 05:18:38;;;;;;;9.23;6.40;;;;;;;16.51;100.00;100440.53;5276376;33;33821;-88
2023/06/06 05:21:41;;;;;;;8.90;6.37;;;;;;;16.61;100.00;100441.94;5266051;33;34462;-85
2023/06/06 05:24:44;;;;;;;10.80;6.65;;;;;;;16.69;100.00;100436.28;5276494;33;33837;-82
2023/06/06 05:27:46;;;;;;;9.80;6.55;;;;;;;16.74;100.00;100440.00;5288933;33;33766;-81
2023/06/06 05:30:52;;;;;;;9.75;6.50;;;;;;;16.91;100.00;100440.37;5276557;33;35065;-81
2023/06/06 05:33:55;;;;;;;8.95;6.50;;;;;;;17.00;100.00;100439.06;5288901;33;34015;-82
2023/06/06 05:36:58;;;;;;;9.13;6.45;;;;;;;17.08;100.00;100448.84;5275912;33;34600;-82
2023/06/06 05:40:00;;;;;;;11.55;6.40;;;;;;;17.15;100.00;100448.81;5276009;33;33767;-82
2023/06/06 05:43:03;;;;;;;10.50;6.70;;;;;;;17.24;100.00;100442.03;5257840;33;33540;-82
2023/06/06 05:46:06;;;;;;;12.23;6.47;;;;;;;17.31;100.00;100461.03;5287627;33;32488;-82
2023/06/06 05:49:11;;;;;;;8.98;5.97;;;;;;;17.29;100.00;100455.84;5286093;33;34571;-82
2023/06/06 05:52:13;;;;;;;9.93;7.05;;;;;;;17.24;100.00;100458.38;5264736;33;35391;-82
2023/06/06 05:55:30;;;;;;;12.43;6.75;;;;;;;17.30;100.00;100453.94;5262506;33;33400;-82
2023/06/06 05:58:35;;;;;;;11.20;6.95;;;;;;;17.27;100.00;100451.66;5294180;33;34263;-82
2023/06/06 06:01:41;;;;;;;10.00;7.30;;;;;;;17.19;100.00;100453.56;5288819;33;34871;-82
2023/06/06 06:04:45;;;;;;;13.02;8.02;;;;;;;17.26;100.00;100458.13;5275096;33;34480;-82
2023/06/06 06:07:49;;;;;;;11.75;8.00;;;;;;;17.23;100.00;100462.97;5274824;33;33697;-82
2023/06/06 06:10:52;;;;;;;13.10;8.10;;;;;;;17.24;100.00;100461.09;5286773;33;34857;-82
2023/06/06 06:13:55;;;;;;;11.38;8.07;;;;;;;17.25;100.00;100470.09;5257591;33;34602;-82
2023/06/06 06:16:58;;;;;;;14.18;9.00;;;;;;;17.32;100.00;100466.28;5280215;33;34529;-82
2023/06/06 06:20:08;;;;;;;10.85;7.45;;;;;;;17.42;100.00;100471.22;5279218;33;35106;-82
2023/06/06 06:23:11;;;;;;;11.07;6.87;;;;;;;17.63;100.00;100464.56;5282222;33;34558;-82
2023/06/06 06:26:14;;;;;;;8.48;7.00;;;;;;;17.84;100.00;100468.81;5273079;33;34138;-82
2023/06/06 06:29:17;;;;;;;11.18;7.47;;;;;;;17.88;100.00;100472.75;5264338;33;34017;-82
2023/06/06 06:32:20;;;;;;;11.45;7.10;;;;;;;17.81;100.00;100472.84;5275078;33;34282;-82
2023/06/06 06:35:23;;;;;;;11.25;7.68;;;;;;;17.83;100.00;100476.16;5261652;33;34103;-82
2023/06/06 06:38:25;;;;;;;11.60;7.72;;;;;;;17.87;100.00;100477.37;5263950;33;33506;-82
2023/06/06 06:41:28;;;;;;;10.98;7.57;;;;;;;17.95;100.00;100478.16;5271083;33;34532;-82
2023/06/06 06:44:31;;;;;;;12.50;7.78;;;;;;;18.01;100.00;100479.97;5263751;33;33857;-82
2023/06/06 06:47:35;;;;;;;12.20;7.70;;;;;;;17.98;100.00;100483.16;5275327;33;33730;-82
2023/06/06 06:50:38;;;;;;;14.00;8.82;;;;;;;18.09;100.00;100493.31;5287991;33;33746;-82
2023/06/06 06:53:41;;;;;;;15.05;9.32;;;;;;;17.94;100.00;100490.94;5252960;33;34366;-82
2023/06/06 06:56:43;;;;;;;13.57;8.70;;;;;;;17.93;100.00;100493.88;5276384;33;34449;-82
2023/06/06 06:59:48;;;;;;;11.07;8.45;;;;;;;17.88;100.00;100497.28;5276153;33;34856;-82
2023/06/06 07:02:53;;;;;;;12.30;8.65;;;;;;;17.85;100.00;100489.56;5293788;33;34930;-82
2023/06/06 07:05:57;;;;;;;12.80;8.75;;;;;;;17.74;100.00;100493.78;5289309;33;33525;-82
2023/06/06 07:09:00;;;;;;;14.60;8.88;;;;;;;17.71;100.00;100501.59;5260895;33;33991;-82
2023/06/06 07:12:07;;;;;;;15.95;9.02;;;;;;;17.67;100.00;100487.59;5289928;33;34548;-82
2023/06/06 07:15:10;;;;;;;12.07;8.23;;;;;;;17.66;100.00;100494.91;5288568;33;35547;-86
2023/06/06 07:18:13;;;;;;;13.00;8.52;;;;;;;17.71;100.00;100490.69;5257934;33;32824;-86
2023/06/06 07:21:16;;;;;;;12.98;9.52;;;;;;;17.81;100.00;100489.19;5262913;33;33977;-86
2023/06/06 07:24:20;;;;;;;14.07;9.50;;;;;;;17.87;100.00;100492.88;5270986;33;34207;-83
2023/06/06 07:27:22;;;;;;;14.95;9.88;;;;;;;17.92;100.00;100490.31;5260805;33;34079;-82
2023/06/06 07:30:25;;;;;;;15.88;10.45;;;;;;;17.93;100.00;100491.16;5254899;33;33656;-82
2023/06/06 07:33:28;;;;;;;16.27;10.23;;;;;;;17.98;100.00;100494.03;5263563;33;34110;-82
2023/06/06 07:36:31;;;;;;;14.10;9.55;;;;;;;18.00;100.00;100494.66;5258436;33;33538;-82
2023/06/06 07:39:34;;;;;;;17.05;10.48;;;;;;;18.12;100.00;100501.87;5243112;33;33761;-82
2023/06/06 07:42:37;;;;;;;12.90;9.65;;;;;;;18.25;100.00;100495.47;5258447;33;33900;-82
2023/06/06 07:45:40;;;;;;;13.45;9.75;;;;;;;18.24;100.00;100491.06;5305469;33;34790;-82
2023/06/06 07:48:43;;;;;;;13.65;9.13;;;;;;;18.25;100.00;100492.75;5277672;33;33985;-81
2023/06/06 07:51:46;;;;;;;13.75;10.18;;;;;;;18.11;100.00;100486.59;5282583;33;32584;-81
2023/06/06 07:54:49;;;;;;;14.77;11.00;;;;;;;17.96;100.00;100487.97;5275975;33;34142;-83
2023/06/06 07:57:53;;;;;;;15.85;10.95;;;;;;;17.74;100.00;100488.34;5278305;33;34271;-84
2023/06/06 08:00:58;;;;;;;15.40;10.65;;;;;;;17.56;100.00;100486.41;5268448;33;34609;-82
2023/06/06 08:04:02;;;;;;;14.65;10.02;;;;;;;17.42;100.00;100482.09;5273564;33;33821;-82
2023/06/06 08:07:04;;;;;;;17.80;11.27;;;;;;;17.37;100.00;100482.75;5281061;33;34491;-83
2023/06/06 08:10:08;;;;;;;17.12;11.07;;;;;;;17.36;100.00;100478.38;5282698;33;33713;-83
2023/06/06 08:13:11;;;;;;;16.92;10.52;;;;;;;17.34;100.00;100483.19;5279071;33;33605;-83
2023/06/06 08:16:14;;;;;;;17.02;11.10;;;;;;;17.30;100.00;100479.25;5270893;33;34407;-84
2023/06/06 08:19:18;;;;;;;18.12;11.90;;;;;;;17.30;100.00;100470.25;5265721;33;33942;-85
2023/06/06 08:22:21;;;;;;;17.45;11.27;;;;;;;17.33;100.00;100476.09;5269297;33;34070;-84
2023/06/06 08:25:24;;;;;;;18.77;11.23;;;;;;;17.39;100.00;100468.94;5276849;33;34593;-85
2023/06/06 08:28:28;;;;;;;17.10;11.77;;;;;;;17.41;100.00;100477.72;5260424;33;33867;-84
2023/06/06 08:31:31;;;;;;;19.15;12.18;;;;;;;17.47;100.00;100474.13;5286078;33;33939;-84
2023/06/06 08:34:34;;;;;;;21.80;11.52;;;;;;;17.50;100.00;100476.41;5295073;33;33860;-84
2023/06/06 08:37:37;;;;;;;21.95;11.70;;;;;;;17.60;100.00;100475.91;5276144;33;33423;-84
2023/06/06 08:40:40;;;;;;;16.77;12.37;;;;;;;17.65;100.00;100481.53;5288710;33;32713;-84
2023/06/06 08:43:46;;;;;;;21.42;12.20;;;;;;;17.79;100.00;100474.13;5269629;33;33554;-84
2023/06/06 08:46:51;;;;;;;21.48;13.55;;;;;;;18.22;100.00;100468.66;5284164;33;34073;-83
2023/06/06 08:49:55;;;;;;;18.80;12.82;;;;;;;18.54;100.00;100479.41;5289237;33;33481;-86
2023/06/06 08:53:04;;;;;;;18.17;13.05;;;;;;;18.73;100.00;100472.91;5265253;33;34377;-84
2023/06/06 08:56:08;;;;;;;19.90;13.30;;;;;;;19.11;100.00;100468.22;5286541;33;33718;-83
2023/06/06 08:59:13;;;;;;;21.02;13.50;;;;;;;19.34;100.00;100476.47;5276662;33;34016;-84
2023/06/06 09:02:16;;;;;;;18.37;12.52;;;;;;;19.58;100.00;100468.34;5282393;33;33842;-83
2023/06/06 09:05:20;;;;;;;16.20;12.00;;;;;;;20.00;100.00;100468.28;5249214;33;33867;-83
2023/06/06 09:08:23;;;;;;;16.87;12.18;;;;;;;20.71;100.00;100460.81;5259907;33;32861;-85
2023/06/06 09:11:27;;;;;;;18.50;13.25;;;;;;;20.82;100.00;100454.47;5274885;33;34381;-83
2023/06/06 09:14:29;;;;;;;16.17;12.50;;;;;;;21.17;100.00;100456.22;5270210;33;33643;-83
2023/06/06 09:17:40;;;;;;;19.05;13.48;;;;;;;21.68;100.00;100455.22;5294735;33;33659;-83
2023/06/06 09:20:43;;;;;;;17.48;12.05;;;;;;;22.18;100.00;100459.03;5293937;33;34732;-85
2023/06/06 09:23:46;;;;;;;17.35;13.25;;;;;;;22.49;100.00;100465.75;5300752;33;34249;-88
2023/06/06 09:26:49;;;;;;;18.92;12.75;;;;;;;22.76;100.00;100460.31;5301374;33;35410;-89
2023/06/06 09:29:52;;;;;;;15.57;11.48;;;;;;;23.03;100.00;100457.63;5281459;33;34126;-86
2023/06/06 09:32:57;;;;;;;18.25;12.50;;;;;;;22.70;100.00;100455.88;5296517;33;34351;-85
2023/06/06 09:36:04;;;;;;;16.10;11.88;;;;;;;22.73;100.00;100454.53;5290285;33;34156;-85
2023/06/06 09:39:15;;;;;;;17.83;13.38;;;;;;;22.35;100.00;100448.03;5293320;33;33739;-86
2023/06/06 09:42:18;;;;;;;16.70;12.02;;;;;;;22.19;100.00;100450.53;5308662;33;35377;-86
2023/06/06 09:45:21;;;;;;;17.37;13.27;;;;;;;22.06;100.00;100455.53;5275057;33;35218;-85
2023/06/06 09:48:29;;;;;;;17.95;13.20;;;;;;;21.84;100.00;100450.81;5266635;33;34028;-85
2023/06/06 09:51:32;;;;;;;21.23;13.32;;;;;;;21.67;100.00;100450.81;5290260;33;33473;-85
2023/06/06 09:54:35;;;;;;;21.00;14.15;;;;;;;21.80;100.00;100455.16;5268939;33;34653;-84
2023/06/06 09:57:40;;;;;;;21.25;15.43;;;;;;;21.90;100.00;100455.28;5275444;33;32347;-84
2023/06/06 10:00:43;;;;;;;20.17;14.73;;;;;;;21.82;100.00;100453.00;5276324;33;33926;-85
2023/06/06 10:03:47;;;;;;;20.12;13.77;;;;;;;21.84;100.00;100448.06;5275838;33;34054;-85
2023/06/06 10:06:53;;;;;;;21.23;14.23;;;;;;;21.80;100.00;100440.63;5288821;33;33638;-83
2023/06/06 10:09:56;;;;;;;20.88;14.82;;;;;;;22.07;100.00;100438.00;5293689;33;33933;-82
2023/06/06 10:12:59;;;;;;;21.75;14.65;;;;;;;22.37;100.00;100426.63;5294719;33;35219;-82
2023/06/06 10:16:04;;;;;;;19.25;14.00;;;;;;;22.38;100.00;100428.31;5274861;33;34184;-83
2023/06/06 10:19:08;;;;;;;18.75;12.93;;;;;;;22.70;100.00;100428.44;5276082;33;33516;-83
2023/06/06 10:22:11;;;;;;;19.08;13.48;;;;;;;22.55;100.00;100428.22;5275613;33;33636;-83
2023/06/06 10:25:16;;;;;;;17.80;12.27;;;;;;;22.62;100.00;100428.88;5302710;33;34751;-83
2023/06/06 10:28:33;;;;;;;18.37;12.00;;;;;;;22.75;100.00;100424.88;5292934;33;33987;-83
2023/06/06 10:32:12;;;;;;;19.02;12.73;;;;;;;23.29;100.00;100417.50;5299418;33;33718;-84
2023/06/06 10:35:17;;;;;;;14.32;11.30;;;;;;;23.70;100.00;100422.53;5291696;33;35360;-83
2023/06/06 10:38:20;;;;;;;14.50;10.10;;;;;;;23.47;100.00;100421.78;5277478;33;33767;-83
2023/06/06 10:41:23;;;;;;;14.27;10.07;;;;;;;23.37;100.00;100418.09;5293188;33;34170;-87
2023/06/06 10:44:26;;;;;;;10.80;9.02;;;;;;;23.79;100.00;100414.62;5282846;33;34345;-84
2023/06/06 10:47:47;;;;;;;11.20;9.02;;;;;;;23.93;100.00;100410.34;5288440;33;33722;-84
2023/06/06 10:50:53;;;;;;;10.35;8.13;;;;;;;23.62;100.00;100407.34;5274382;33;34551;-84
2023/06/06 10:54:18;;;;;;;11.12;8.25;;;;;;;23.11;100.00;100404.16;5265551;33;34020;-83
2023/06/06 10:57:21;;;;;;;9.60;7.28;;;;;;;22.83;100.00;100400.56;5272633;33;33783;-83
2023/06/06 11:00:25;;;;;;;9.23;6.43;;;;;;;22.26;100.00;100406.50;5249620;33;34438;-83
2023/06/06 11:03:41;;;;;;;6.05;4.78;;;;;;;21.57;100.00;100414.22;5261088;33;33534;-83
2023/06/06 11:06:46;;;;;;;6.78;5.05;;;;;;;21.17;100.00;100407.78;5276967;33;33758;-83
2023/06/06 11:09:50;;;;;;;5.47;4.93;;;;;;;20.84;100.00;100414.84;5273130;33;33760;-83
2023/06/06 11:12:54;;;;;;;5.97;4.68;;;;;;;20.76;100.00;100411.66;5265032;33;33553;-83
2023/06/06 11:15:57;;;;;;;6.18;4.80;;;;;;;20.75;100.00;100410.03;5275347;33;33721;-83
2023/06/06 11:19:08;;;;;;;6.35;4.87;;;;;;;21.15;100.00;100414.56;5268469;33;33831;-83
2023/06/06 11:22:20;;;;;;;5.18;4.60;;;;;;;21.26;100.00;100421.88;5273130;33;34525;-84
2023/06/06 11:25:23;;;;;;;4.43;3.65;;;;;;;20.88;100.00;100434.34;5266813;33;33872;-83
2023/06/06 11:28:26;;;;;;;4.55;3.80;;;;;;;20.28;100.00;100432.00;5255665;33;33782;-83
2023/06/06 11:31:31;;;;;;;4.82;3.47;;;;;;;19.89;100.00;100434.41;5270799;33;33015;-83
2023/06/06 11:34:33;;;;;;;3.83;2.87;;;;;;;19.56;100.00;100432.22;5273054;33;33558;-83
2023/06/06 11:37:37;;;;;;;3.70;3.30;;;;;;;19.38;100.00;100425.78;5252055;33;33357;-83
2023/06/06 11:40:39;;;;;;;3.95;3.53;;;;;;;19.16;100.00;100436.44;5258799;33;34840;-83
2023/06/06 11:43:50;;;;;;;5.93;4.12;;;;;;;18.99;100.00;100443.63;5263333;33;33821;-83
2023/06/06 11:46:53;;;;;;;6.35;4.00;;;;;;;18.96;100.00;100436.72;5275974;33;33395;-83
2023/06/06 11:49:56;;;;;;;9.07;4.40;;;;;;;18.99;100.00;100435.44;5259969;33;33320;-83
2023/06/06 11:53:00;;;;;;;5.20;4.10;;;;;;;19.18;100.00;100430.72;5253135;33;33096;-83
2023/06/06 11:56:05;;;;;;;7.80;4.75;;;;;;;19.24;100.00;100440.72;5259486;33;32446;-83
2023/06/06 11:59:11;;;;;;;5.55;4.57;;;;;;;19.19;100.00;100443.34;5249636;33;33487;-88
2023/06/06 12:02:15;;;;;;;7.78;4.50;;;;;;;19.18;100.00;100445.19;5275933;33;35374;-88
2023/06/06 12:05:22;;;;;;;6.25;5.22;;;;;;;19.06;100.00;100444.34;5261710;33;35074;-84
2023/06/06 12:08:25;;;;;;;6.93;5.28;;;;;;;18.88;100.00;100444.41;5290048;33;35555;-84
2023/06/06 12:11:30;;;;;;;8.52;5.95;;;;;;;18.79;100.00;100444.72;5291340;33;33771;-84
2023/06/06 12:14:33;;;;;;;8.10;5.82;;;;;;;18.69;100.00;100447.13;5253328;33;33029;-84
2023/06/06 12:17:37;;;;;;;9.68;5.55;;;;;;;18.50;100.00;100438.13;5266299;33;33731;-83
2023/06/06 12:20:40;;;;;;;8.75;5.75;;;;;;;18.37;100.00;100435.59;5282872;33;33744;-83
2023/06/06 12:23:44;;;;;;;8.73;5.87;;;;;;;18.47;100.00;100424.97;5261255;33;34047;-83
2023/06/06 12:26:57;;;;;;;6.75;5.68;;;;;;;18.64;100.00;100430.63;5273841;33;34067;-83
2023/06/06 12:30:01;;;;;;;7.07;5.57;;;;;;;18.78;100.00;100428.59;5273015;33;34690;-83
2023/06/06 12:33:04;;;;;;;9.88;6.03;;;;;;;18.92;100.00;100430.03;5267058;33;33221;-83
2023/06/06 12:36:20;;;;;;;8.07;5.68;;;;;;;19.11;100.00;100438.19;5258210;33;33770;-83
2023/06/06 12:39:23;;;;;;;11.23;6.50;;;;;;;19.15;100.00;100433.94;5292390;33;34005;-83
2023/06/06 12:42:26;;;;;;;9.75;5.85;;;;;;;19.20;100.00;100436.78;5301904;33;35314;-83
2023/06/06 12:45:29;;;;;;;11.38;6.55;;;;;;;19.45;100.00;100433.87;5304492;33;32237;-83
2023/06/06 12:48:32;;;;;;;9.15;5.85;;;;;;;19.25;100.00;100435.03;5274808;33;34676;-83
2023/06/06 12:51:36;;;;;;;10.25;5.93;;;;;;;19.06;100.00;100443.50;5269553;33;33539;-83
2023/06/06 12:54:41;;;;;;;7.95;7.12;;;;;;;18.73;100.00;100440.19;5262903;33;33757;-84
2023/06/06 12:57:45;;;;;;;11.10;6.32;;;;;;;18.73;100.00;100440.19;5257271;33;33528;-84
2023/06/06 13:00:49;;;;;;;10.82;6.50;;;;;;;18.96;100.00;100439.44;5262787;33;33961;-84
2023/06/06 13:03:52;;;;;;;15.55;13.10;;;;;;;18.97;100.00;100432.91;5251892;33;33478;-83
2023/06/06 13:06:55;;;;;;;9.85;7.45;;;;;;;19.05;100.00;100434.50;5272814;33;33449;-84
2023/06/06 13:09:59;;;;;;;8.38;6.50;;;;;;;19.08;100.00;100438.66;5259511;33;33726;-84
2023/06/06 13:13:02;;;;;;;13.68;7.18;;;;;;;19.05;100.00;100437.22;5274894;33;33825;-82
2023/06/06 13:16:06;;;;;;;9.82;7.28;;;;;;;19.10;100.00;100433.78;5266667;33;34501;-83
2023/06/06 13:19:12;;;;;;;8.85;6.65;;;;;;;19.18;100.00;100430.72;5297594;33;35164;-83
2023/06/06 13:22:15;;;;;;;10.57;7.35;;;;;;;19.19;100.00;100427.78;5292105;33;33522;-82
2023/06/06 13:25:20;;;;;;;9.60;6.90;;;;;;;19.24;100.00;100430.63;5279887;33;34140;-82
2023/06/06 13:28:23;;;;;;;9.60;6.97;;;;;;;19.43;100.00;100436.03;5268914;33;35729;-82
2023/06/06 13:31:26;;;;;;;10.23;7.10;;;;;;;19.57;100.00;100437.47;5275386;33;34362;-82
2023/06/06 13:34:29;;;;;;;11.75;7.37;;;;;;;19.61;100.00;100435.91;5263089;33;34272;-81
2023/06/06 13:37:32;;;;;;;11.65;6.37;;;;;;;19.65;100.00;100439.03;5287394;33;33991;-81
2023/06/06 13:40:37;;;;;;;9.55;6.82;;;;;;;19.78;100.00;100421.59;5276221;33;33355;-82
2023/06/06 13:43:40;;;;;;;12.75;6.43;;;;;;;19.88;100.00;100425.38;5263964;33;34851;-81
2023/06/06 13:46:44;;;;;;;12.55;6.32;;;;;;;19.97;100.00;100422.28;5269615;33;34588;-85
2023/06/06 13:50:03;;;;;;;10.25;6.20;;;;;;;20.00;100.00;100425.38;5281725;33;34469;-82
2023/06/06 13:53:07;;;;;;;14.73;6.90;;;;;;;20.01;100.00;100421.59;5254057;33;34549;-81
2023/06/06 13:56:10;;;;;;;13.02;6.93;;;;;;;19.99;100.00;100418.25;5275766;33;33750;-82
2023/06/06 13:59:17;;;;;;;11.95;7.10;;;;;;;19.81;100.00;100421.94;5279779;33;34645;-81
2023/06/06 14:02:21;;;;;;;11.77;6.80;;;;;;;19.76;100.00;100419.09;5287643;33;34075;-81
2023/06/06 14:05:24;;;;;;;10.88;6.72;;;;;;;19.79;100.00;100420.53;5276199;33;33564;-82
2023/06/06 14:08:27;;;;;;;11.10;6.80;;;;;;;19.78;100.00;100427.88;5264580;33;33692;-81
2023/06/06 14:11:30;;;;;;;11.30;7.60;;;;;;;19.70;100.00;100409.94;5275778;33;33350;-82
2023/06/06 14:14:32;;;;;;;11.30;7.50;;;;;;;19.74;100.00;100414.94;5267150;33;34200;-82
2023/06/06 14:17:35;;;;;;;10.40;7.37;;;;;;;19.76;100.00;100412.81;5261414;33;33550;-82
2023/06/06 14:20:49;;;;;;;10.90;7.78;;;;;;;19.83;100.00;100413.50;5274731;33;33795;-82
2023/06/06 14:23:52;;;;;;;13.62;8.00;;;;;;;19.83;100.00;100408.91;5266972;33;34357;-82
2023/06/06 14:26:54;;;;;;;13.32;8.20;;;;;;;19.96;100.00;100406.97;5268934;33;33733;-82
2023/06/06 14:29:58;;;;;;;10.77;7.32;;;;;;;20.05;100.00;100406.37;5255775;33;32498;-81
2023/06/06 14:33:01;;;;;;;13.27;8.13;;;;;;;20.09;100.00;100415.72;5268155;33;33420;-82
2023/06/06 14:36:04;;;;;;;13.32;8.60;;;;;;;20.13;100.00;100403.28;5288580;33;32852;-83
2023/06/06 14:39:07;;;;;;;10.32;8.30;;;;;;;20.18;100.00;100397.06;5297439;33;34345;-81
2023/06/06 14:42:10;;;;;;;11.95;8.32;;;;;;;20.31;100.00;100393.25;5275344;33;34927;-81
2023/06/06 14:45:14;;;;;;;11.70;8.60;;;;;;;20.49;100.00;100392.25;5266760;33;290793;-81
2023/06/06 14:48:17;;;;;;;16.52;8.35;;;;;;;20.51;100.00;100396.41;5273770;33;34507;-81
2023/06/06 14:51:20;;;;;;;12.45;8.63;;;;;;;20.63;100.00;100393.66;5275586;33;34654;-81
2023/06/06 14:54:23;;;;;;;12.35;8.32;;;;;;;20.72;100.00;100394.09;5275901;33;34563;-81
2023/06/06 14:57:26;;;;;;;15.30;9.15;;;;;;;20.74;100.00;100398.25;5275249;33;33510;-81
2023/06/06 15:00:29;;;;;;;13.68;9.40;;;;;;;20.76;100.00;100389.78;5263978;33;33689;-81
2023/06/06 15:03:31;;;;;;;14.02;8.65;;;;;;;20.75;100.00;100388.97;5264077;33;34208;-81
2023/06/06 15:06:35;;;;;;;13.10;9.07;;;;;;;20.83;100.00;100383.09;5264251;33;33860;-81
2023/06/06 15:09:38;;;;;;;14.38;9.02;;;;;;;20.90;100.00;100380.19;5263984;33;34479;-81
2023/06/06 15:12:41;;;;;;;13.62;9.00;;;;;;;20.80;100.00;100375.38;5268773;33;33947;-81
2023/06/06 15:15:44;;;;;;;13.25;9.25;;;;;;;20.74;100.00;100365.41;5270866;33;34300;-81
2023/06/06 15:18:47;;;;;;;13.98;9.40;;;;;;;20.92;100.00;100356.16;5264139;33;33890;-81
2023/06/06 15:21:50;;;;;;;14.40;9.20;;;;;;;20.79;100.00;100349.06;5263786;33;34573;-81
2023/06/06 15:24:56;;;;;;;12.48;8.45;;;;;;;20.82;100.00;100345.00;5287976;33;34730;-81
2023/06/06 15:27:59;;;;;;;13.57;9.00;;;;;;;20.87;100.00;100341.56;5275294;33;34684;-81
2023/06/06 15:31:02;;;;;;;13.85;8.70;;;;;;;20.66;100.00;100338.44;5263800;33;34218;-81
2023/06/06 15:34:05;;;;;;;12.32;9.05;;;;;;;20.53;100.00;100336.84;5275362;33;34413;-81
2023/06/06 15:37:09;;;;;;;10.10;7.80;;;;;;;20.36;100.00;100333.22;5264074;33;34211;-81
2023/06/06 15:40:12;;;;;;;10.18;7.55;;;;;;;20.20;100.00;100340.25;5287894;33;33766;-81
2023/06/06 15:43:17;;;;;;;12.60;7.93;;;;;;;20.11;100.00;100328.03;5288141;33;33469;-81
2023/06/06 15:46:20;;;;;;;11.48;7.45;;;;;;;19.92;100.00;100325.47;5288068;33;33878;-85
2023/06/06 15:49:23;;;;;;;12.37;8.02;;;;;;;19.89;100.00;100319.66;5288260;33;33893;-85
2023/06/06 15:52:26;;;;;;;12.20;7.93;;;;;;;19.86;100.00;100328.31;5263581;33;33854;-82
2023/06/06 15:55:30;;;;;;;13.80;8.65;;;;;;;19.89;100.00;100334.16;5270159;33;34253;-81
2023/06/06 15:58:33;;;;;;;11.93;7.75;;;;;;;19.86;100.00;100331.06;5287472;33;33778;-81
